Watford, Canada
Current Conditions -  °F | °C
As of 9:00 AM on Monday 26 Jan 2015 (Local Time) from CYZR Reporting Station
Clear Clear  
Wind Chill: -18°   Ceiling: Unl
Heat Index: -10°   Visibility: 9mi
Dew Point: -13°   Wind: 12mph
Humidity: 79%   Direction: 50°NE
Pressure: 29.95"   Gusts: NA
Location:  42.95°N, 81.88°W
Report Text: CYZR 261400Z AUTO 05010KT 9SM CLR M10/M13 A2995 RMK SLP155
Loading
Personal Weather Stations






























Interactive Weather Map New forecast layout! Learn more

10-Day Weather Forecast

Advertisements
Track Severe Weather on mobile